Terminal Aerodrome Forecast
Issued by NWS

Current Version | Previous Version | Text Only | Print | Product List | Glossary On
Versions: 1 2 3 4 5 6 7 8 9 10 11 12 13 14 15 16
638
FTUS45 KABQ 222344 RRA
TAFSAF
TAF
KSAF 222344Z 2300/2324 33010KT P6SM OVC060
     FM231300 23008KT P6SM BKN060
     FM231800 23018G28KT P6SM BKN090=

USA.gov is the U.S. government's official web portal to all federal, state and local government web resources and services.